Time;durP1;ratioP1;P1;durP2;ratioP2;P2;SDS_P1;SDS_P2;PMS_P1;PMS_P2;Temp;Humidity;BMP_temperature;BMP_pressure;BME280_temperature;BME280_humidity;BME280_pressure;Samples;Min_cycle;Max_cycle;Signal;HPM_P1;HPM_P2
2022/01/04 00:01:04;;;;;;;0.50;0.50;;;;;;;;;;5030980;28;20483;-64
2022/01/04 00:03:30;;;;;;;0.50;0.50;;;;;;;;;;5030830;28;20272;-64
2022/01/04 00:05:56;;;;;;;0.50;0.50;;;;;;;;;;5031004;28;20891;-64
2022/01/04 00:08:23;;;;;;;0.40;0.40;;;;;;;;;;5030927;28;20506;-64
2022/01/04 00:10:49;;;;;;;0.40;0.40;;;;;;;;;;5033101;28;20490;-64
2022/01/04 00:13:24;;;;;;;0.40;0.40;;;;;;;;;;5034261;28;20256;-64
2022/01/04 00:15:54;;;;;;;0.40;0.40;;;;;;;;;;5034884;28;20197;-64
2022/01/04 00:18:20;;;;;;;0.50;0.50;;;;;;;;;;5034253;28;20610;-64
2022/01/04 00:20:47;;;;;;;0.50;0.50;;;;;;;;;;5034690;28;20227;-64
2022/01/04 00:23:13;;;;;;;0.40;0.40;;;;;;;;;;5034396;28;20403;-64
2022/01/04 00:25:39;;;;;;;0.50;0.50;;;;;;;;;;5034300;28;20180;-64
2022/01/04 00:28:07;;;;;;;0.50;0.50;;;;;;;;;;5051207;28;20203;-64
2022/01/04 00:30:37;;;;;;;0.40;0.40;;;;;;;;;;5054079;28;20401;-64
2022/01/04 00:33:03;;;;;;;0.40;0.40;;;;;;;;;;5053915;28;20172;-64
2022/01/04 00:35:29;;;;;;;0.40;0.40;;;;;;;;;;5054076;28;20549;-64
2022/01/04 00:37:57;;;;;;;0.40;0.40;;;;;;;;;;5053902;28;20200;-64
2022/01/04 00:40:23;;;;;;;0.40;0.40;;;;;;;;;;5054023;28;20164;-64
2022/01/04 00:42:49;;;;;;;0.50;0.50;;;;;;;;;;5053711;28;20176;-64
2022/01/04 00:45:15;;;;;;;0.40;0.40;;;;;;;;;;5053825;28;20438;-64
2022/01/04 00:49:09;;;;;;;0.40;0.40;;;;;;;;;;5053778;28;20254;-64
2022/01/04 00:50:30;;;;;;;0.50;0.50;;;;;;;;;;5053548;28;20983;-64
2022/01/04 00:52:57;;;;;;;0.40;0.40;;;;;;;;;;5053694;28;20172;-63
2022/01/04 00:55:23;;;;;;;0.40;0.40;;;;;;;;;;5035931;28;20186;-64
2022/01/04 00:57:49;;;;;;;0.40;0.40;;;;;;;;;;5053458;28;20246;-64
2022/01/04 01:00:16;;;;;;;0.40;0.40;;;;;;;;;;5053655;28;20545;-64
2022/01/04 01:02:42;;;;;;;0.40;0.40;;;;;;;;;;5053369;28;20770;-64
2022/01/04 01:05:08;;;;;;;0.40;0.40;;;;;;;;;;5053593;28;20598;-64
2022/01/04 01:07:34;;;;;;;0.40;0.40;;;;;;;;;;5053349;28;20258;-64
2022/01/04 01:10:13;;;;;;;0.40;0.40;;;;;;;;;;5053333;28;20204;-63
2022/01/04 01:12:39;;;;;;;0.50;0.50;;;;;;;;;;5053239;28;20262;-64
2022/01/04 01:15:06;;;;;;;0.40;0.40;;;;;;;;;;5056164;28;20223;-66
2022/01/04 01:17:32;;;;;;;0.50;0.50;;;;;;;;;;5057034;28;20462;-65
2022/01/04 01:19:58;;;;;;;0.40;0.40;;;;;;;;;;5056697;28;20249;-64
2022/01/04 01:22:24;;;;;;;0.40;0.40;;;;;;;;;;5056882;28;20413;-64
2022/01/04 01:24:50;;;;;;;0.40;0.40;;;;;;;;;;5056866;28;20168;-66
2022/01/04 01:27:16;;;;;;;0.43;0.43;;;;;;;;;;5027833;28;20216;-64
2022/01/04 01:29:42;;;;;;;0.50;0.50;;;;;;;;;;5033447;28;20201;-63
2022/01/04 01:32:08;;;;;;;0.40;0.40;;;;;;;;;;5033029;28;20506;-64
2022/01/04 01:34:34;;;;;;;0.40;0.40;;;;;;;;;;5032750;28;20177;-63
2022/01/04 01:37:01;;;;;;;0.40;0.40;;;;;;;;;;5032933;28;20200;-63
2022/01/04 01:39:27;;;;;;;0.50;0.50;;;;;;;;;;5032934;28;20455;-63
2022/01/04 01:41:53;;;;;;;0.50;0.50;;;;;;;;;;5032888;28;20200;-63
2022/01/04 01:44:19;;;;;;;0.40;0.40;;;;;;;;;;5032697;28;20632;-64
2022/01/04 01:46:45;;;;;;;0.50;0.50;;;;;;;;;;5032808;28;20510;-63
2022/01/04 01:49:11;;;;;;;0.40;0.40;;;;;;;;;;5032755;28;20267;-63
2022/01/04 01:51:37;;;;;;;0.40;0.40;;;;;;;;;;5032845;28;20416;-64
2022/01/04 01:54:03;;;;;;;0.40;0.40;;;;;;;;;;5032445;28;20411;-64
2022/01/04 01:56:29;;;;;;;0.40;0.40;;;;;;;;;;5032687;28;20777;-63
2022/01/04 01:58:56;;;;;;;0.50;0.50;;;;;;;;;;5032424;28;20208;-63
2022/01/04 02:01:22;;;;;;;0.43;0.43;;;;;;;;;;5032624;28;20440;-63
2022/01/04 02:03:49;;;;;;;0.40;0.40;;;;;;;;;;5032263;28;20176;-63
2022/01/04 02:06:15;;;;;;;0.50;0.50;;;;;;;;;;5032314;28;20177;-63
2022/01/04 02:08:41;;;;;;;0.50;0.50;;;;;;;;;;5031902;28;20193;-63
2022/01/04 02:11:08;;;;;;;0.40;0.40;;;;;;;;;;5032360;28;20196;-63
2022/01/04 02:13:34;;;;;;;0.40;0.40;;;;;;;;;;5032055;28;20420;-63
2022/01/04 02:16:02;;;;;;;0.40;0.40;;;;;;;;;;5014588;28;20177;-63
2022/01/04 02:18:28;;;;;;;0.50;0.50;;;;;;;;;;5032109;28;20622;-64
2022/01/04 02:20:54;;;;;;;0.40;0.40;;;;;;;;;;5032321;28;20204;-64
2022/01/04 02:23:20;;;;;;;0.40;0.40;;;;;;;;;;5032035;28;20407;-64
2022/01/04 02:25:47;;;;;;;0.40;0.40;;;;;;;;;;5014433;28;20410;-64
2022/01/04 02:28:18;;;;;;;0.40;0.40;;;;;;;;;;5050055;28;20195;-64
2022/01/04 02:30:43;;;;;;;0.40;0.40;;;;;;;;;;5051949;28;20172;-64
2022/01/04 02:33:09;;;;;;;0.50;0.50;;;;;;;;;;5051104;28;20180;-64
2022/01/04 02:35:35;;;;;;;0.40;0.40;;;;;;;;;;5051720;28;20418;-64
2022/01/04 02:38:03;;;;;;;0.40;0.40;;;;;;;;;;5033685;28;20977;-64
2022/01/04 02:40:29;;;;;;;0.40;0.40;;;;;;;;;;5051733;28;20249;-64
2022/01/04 02:42:55;;;;;;;0.40;0.40;;;;;;;;;;5051424;28;20172;-63
2022/01/04 02:45:22;;;;;;;0.50;0.50;;;;;;;;;;5051728;28;20183;-63
2022/01/04 02:47:48;;;;;;;0.40;0.40;;;;;;;;;;5051072;28;20202;-63
2022/01/04 02:50:14;;;;;;;0.50;0.50;;;;;;;;;;5051627;28;20180;-63
2022/01/04 02:52:40;;;;;;;0.40;0.40;;;;;;;;;;5051449;28;20175;-64
2022/01/04 02:55:07;;;;;;;0.40;0.40;;;;;;;;;;5051510;28;20445;-63
2022/01/04 02:57:33;;;;;;;0.43;0.43;;;;;;;;;;5051521;28;20454;-63
2022/01/04 02:59:59;;;;;;;0.50;0.50;;;;;;;;;;5051367;28;20195;-64
2022/01/04 03:02:26;;;;;;;0.40;0.40;;;;;;;;;;5033533;28;20524;-63
2022/01/04 03:04:52;;;;;;;0.40;0.40;;;;;;;;;;5051461;28;20413;-63
2022/01/04 03:07:18;;;;;;;0.40;0.40;;;;;;;;;;5051488;28;20258;-63
2022/01/04 03:09:44;;;;;;;0.40;0.40;;;;;;;;;;5051350;28;20254;-64
2022/01/04 03:12:10;;;;;;;0.40;0.40;;;;;;;;;;5051371;28;20435;-63
2022/01/04 03:14:36;;;;;;;0.50;0.50;;;;;;;;;;5051005;28;20180;-63
2022/01/04 03:17:02;;;;;;;0.40;0.40;;;;;;;;;;5051212;28;20203;-63
2022/01/04 03:19:28;;;;;;;0.50;0.50;;;;;;;;;;5051202;28;20207;-64
2022/01/04 03:21:54;;;;;;;0.40;0.40;;;;;;;;;;5051374;28;20213;-63
2022/01/04 03:24:20;;;;;;;0.50;0.50;;;;;;;;;;5051072;28;20403;-64
2022/01/04 03:26:46;;;;;;;0.40;0.40;;;;;;;;;;5044684;28;20517;-64
2022/01/04 03:29:13;;;;;;;0.40;0.40;;;;;;;;;;5031210;28;20984;-63
2022/01/04 03:31:39;;;;;;;0.45;0.45;;;;;;;;;;5013920;28;20400;-64
2022/01/04 03:34:06;;;;;;;0.40;0.40;;;;;;;;;;5031190;28;20579;-63
2022/01/04 03:36:32;;;;;;;0.43;0.43;;;;;;;;;;5031420;28;20177;-63
2022/01/04 03:38:59;;;;;;;0.40;0.40;;;;;;;;;;5031202;28;20240;-63
2022/01/04 03:41:26;;;;;;;0.50;0.50;;;;;;;;;;5031292;28;20168;-64
2022/01/04 03:43:52;;;;;;;0.40;0.40;;;;;;;;;;5030946;28;20173;-64
2022/01/04 03:46:18;;;;;;;0.50;0.50;;;;;;;;;;5034286;28;20705;-64
2022/01/04 03:48:45;;;;;;;0.40;0.40;;;;;;;;;;5034820;28;20431;-63
2022/01/04 03:51:11;;;;;;;0.40;0.40;;;;;;;;;;5034990;28;20177;-64
2022/01/04 03:53:37;;;;;;;0.40;0.40;;;;;;;;;;5034734;28;20176;-63
2022/01/04 03:56:03;;;;;;;0.40;0.40;;;;;;;;;;5034916;28;20636;-64
2022/01/04 03:58:30;;;;;;;0.40;0.40;;;;;;;;;;5034569;28;20467;-64
2022/01/04 04:00:56;;;;;;;0.40;0.40;;;;;;;;;;5034827;28;20636;-63
2022/01/04 04:03:22;;;;;;;0.50;0.50;;;;;;;;;;5034531;28;20183;-64
2022/01/04 04:05:49;;;;;;;0.40;0.40;;;;;;;;;;5034706;28;20469;-64
2022/01/04 04:08:15;;;;;;;0.40;0.40;;;;;;;;;;5034530;28;20427;-64
2022/01/04 04:10:41;;;;;;;0.47;0.47;;;;;;;;;;5034489;28;20540;-63
2022/01/04 04:13:07;;;;;;;0.40;0.40;;;;;;;;;;5034341;28;20181;-64
2022/01/04 04:15:33;;;;;;;0.50;0.50;;;;;;;;;;5034717;28;20408;-64
2022/01/04 04:17:59;;;;;;;0.40;0.40;;;;;;;;;;5034281;28;20512;-64
2022/01/04 04:20:25;;;;;;;0.40;0.40;;;;;;;;;;5057476;22;20306;-62
2022/01/04 04:22:51;;;;;;;0.40;0.40;;;;;;;;;;5034385;28;20412;-61
2022/01/04 04:25:17;;;;;;;0.40;0.40;;;;;;;;;;5037831;28;20182;-62
2022/01/04 04:27:43;;;;;;;0.50;0.50;;;;;;;;;;5054557;28;20399;-62
2022/01/04 04:30:09;;;;;;;0.40;0.40;;;;;;;;;;5054539;28;20736;-62
2022/01/04 04:32:35;;;;;;;0.40;0.40;;;;;;;;;;5054443;28;20399;-62
2022/01/04 04:35:01;;;;;;;0.40;0.40;;;;;;;;;;5054623;28;20547;-62
2022/01/04 04:37:27;;;;;;;0.40;0.40;;;;;;;;;;5050823;28;20550;-62
2022/01/04 04:39:53;;;;;;;0.40;0.40;;;;;;;;;;5034312;28;20271;-62
2022/01/04 04:42:19;;;;;;;0.40;0.40;;;;;;;;;;5034819;28;20769;-62
2022/01/04 04:44:46;;;;;;;0.40;0.40;;;;;;;;;;5034437;28;20442;-62
2022/01/04 04:47:12;;;;;;;0.40;0.40;;;;;;;;;;5034586;28;20173;-61
2022/01/04 04:49:38;;;;;;;0.40;0.40;;;;;;;;;;5034574;28;20301;-62
2022/01/04 04:52:04;;;;;;;0.40;0.40;;;;;;;;;;5016484;28;20196;-61
2022/01/04 04:54:31;;;;;;;0.40;0.40;;;;;;;;;;5034149;28;20443;-61
2022/01/04 04:56:57;;;;;;;0.50;0.50;;;;;;;;;;5032952;28;20180;-62
2022/01/04 04:59:23;;;;;;;0.40;0.40;;;;;;;;;;5034056;28;20192;-62
2022/01/04 05:01:49;;;;;;;0.40;0.40;;;;;;;;;;5033960;28;20542;-62
2022/01/04 05:04:15;;;;;;;0.40;0.40;;;;;;;;;;5033773;28;20172;-62
2022/01/04 05:06:41;;;;;;;0.50;0.50;;;;;;;;;;5033706;28;20411;-59
2022/01/04 05:09:07;;;;;;;0.40;0.40;;;;;;;;;;5033676;28;20221;-62
2022/01/04 05:11:33;;;;;;;0.50;0.50;;;;;;;;;;5033729;28;20250;-64
2022/01/04 05:13:59;;;;;;;0.40;0.40;;;;;;;;;;5037253;28;20846;-62
2022/01/04 05:16:25;;;;;;;0.40;0.40;;;;;;;;;;5037378;28;20416;-61
2022/01/04 05:18:51;;;;;;;0.40;0.40;;;;;;;;;;5033416;28;20467;-61
2022/01/04 05:21:17;;;;;;;0.50;0.50;;;;;;;;;;5033618;28;20468;-61
2022/01/04 05:23:43;;;;;;;0.40;0.40;;;;;;;;;;5033788;28;20582;-62
2022/01/04 05:26:09;;;;;;;0.40;0.40;;;;;;;;;;5033761;28;20802;-57
2022/01/04 05:28:35;;;;;;;0.40;0.40;;;;;;;;;;5033743;28;20520;-62
2022/01/04 05:31:01;;;;;;;0.40;0.40;;;;;;;;;;5033436;28;20196;-62
2022/01/04 05:33:27;;;;;;;0.40;0.40;;;;;;;;;;5033496;28;20184;-62
2022/01/04 05:35:54;;;;;;;0.40;0.40;;;;;;;;;;5033338;28;20408;-57
2022/01/04 05:38:20;;;;;;;0.40;0.40;;;;;;;;;;5033253;28;20451;-62
2022/01/04 05:40:46;;;;;;;0.40;0.40;;;;;;;;;;5033401;28;20239;-60
2022/01/04 05:43:13;;;;;;;0.40;0.40;;;;;;;;;;5032842;28;20173;-60
2022/01/04 05:45:39;;;;;;;0.40;0.40;;;;;;;;;;5015710;28;20448;-62
2022/01/04 05:48:05;;;;;;;0.50;0.50;;;;;;;;;;5015302;28;20192;-61
2022/01/04 05:50:32;;;;;;;0.40;0.40;;;;;;;;;;5032779;28;20201;-59
2022/01/04 05:52:58;;;;;;;0.40;0.40;;;;;;;;;;5033406;28;20177;-62
2022/01/04 05:55:24;;;;;;;0.40;0.40;;;;;;;;;;5033124;28;20640;-62
2022/01/04 05:57:49;;;;;;;0.50;0.50;;;;;;;;;;5032733;28;21028;-62
2022/01/04 06:00:16;;;;;;;0.30;0.30;;;;;;;;;;5033098;28;20441;-62
2022/01/04 06:02:42;;;;;;;0.40;0.40;;;;;;;;;;5032724;28;20404;-60
2022/01/04 06:05:09;;;;;;;0.37;0.37;;;;;;;;;;5033078;28;20536;-62
2022/01/04 06:07:35;;;;;;;0.40;0.40;;;;;;;;;;5032673;28;20466;-62
2022/01/04 06:10:01;;;;;;;0.40;0.40;;;;;;;;;;5032583;28;20193;-62
2022/01/04 06:15:15;;;;;;;0.40;0.40;;;;;;;;;;5032706;28;20216;-61
2022/01/04 06:17:49;;;;;;;0.40;0.40;;;;;;;;;;5032585;28;20197;-62
2022/01/04 06:20:17;;;;;;;0.40;0.40;;;;;;;;;;5032615;28;20211;-62
2022/01/04 06:22:43;;;;;;;0.40;0.40;;;;;;;;;;5032327;28;20234;-61
2022/01/04 06:25:11;;;;;;;0.40;0.40;;;;;;;;;;5032229;28;20173;-60
2022/01/04 06:27:37;;;;;;;0.40;0.40;;;;;;;;;;5032221;28;20191;-61
2022/01/04 06:30:03;;;;;;;0.40;0.40;;;;;;;;;;5032335;28;20192;-61
2022/01/04 06:32:29;;;;;;;0.40;0.40;;;;;;;;;;5031827;28;20422;-62
2022/01/04 06:34:55;;;;;;;0.40;0.40;;;;;;;;;;5032321;28;20653;-62
2022/01/04 06:37:21;;;;;;;0.50;0.50;;;;;;;;;;5032218;28;20447;-59
2022/01/04 06:39:47;;;;;;;0.40;0.40;;;;;;;;;;5032425;28;20504;-61
2022/01/04 06:42:14;;;;;;;0.40;0.40;;;;;;;;;;5032111;28;20771;-60
2022/01/04 06:44:41;;;;;;;0.40;0.40;;;;;;;;;;5032163;28;20168;-61
2022/01/04 06:47:07;;;;;;;0.40;0.40;;;;;;;;;;5032143;28;20174;-59
2022/01/04 06:49:33;;;;;;;0.40;0.40;;;;;;;;;;5031900;28;20640;-60
2022/01/04 06:51:59;;;;;;;0.47;0.47;;;;;;;;;;5032096;28;20404;-62
2022/01/04 06:54:25;;;;;;;0.40;0.40;;;;;;;;;;5032940;28;20218;-62
2022/01/04 06:56:52;;;;;;;0.40;0.40;;;;;;;;;;5031770;28;20219;-62
2022/01/04 06:59:18;;;;;;;0.40;0.40;;;;;;;;;;5031902;28;20200;-61
2022/01/04 07:01:44;;;;;;;0.40;0.40;;;;;;;;;;5032007;28;20230;-62
2022/01/04 07:04:11;;;;;;;0.40;0.40;;;;;;;;;;5032180;28;20165;-61
2022/01/04 07:06:37;;;;;;;0.40;0.40;;;;;;;;;;5014303;28;20185;-62
2022/01/04 07:09:04;;;;;;;0.40;0.40;;;;;;;;;;5031849;28;20197;-62
2022/01/04 07:11:30;;;;;;;0.40;0.40;;;;;;;;;;5031902;28;20183;-61
2022/01/04 07:13:55;;;;;;;0.40;0.40;;;;;;;;;;5034451;28;20180;-61
2022/01/04 07:16:22;;;;;;;0.40;0.40;;;;;;;;;;5051488;28;20267;-62
2022/01/04 07:18:49;;;;;;;0.30;0.30;;;;;;;;;;5051135;28;20462;-62
2022/01/04 07:21:19;;;;;;;0.40;0.40;;;;;;;;;;5054790;28;20571;-61
2022/01/04 07:23:46;;;;;;;0.40;0.40;;;;;;;;;;5055516;28;20247;-61
2022/01/04 07:26:14;;;;;;;0.40;0.40;;;;;;;;;;5055516;28;20175;-61
2022/01/04 07:28:40;;;;;;;0.40;0.40;;;;;;;;;;5055386;28;20802;-62
2022/01/04 07:31:06;;;;;;;0.40;0.40;;;;;;;;;;5055708;28;20192;-61
2022/01/04 07:33:32;;;;;;;0.40;0.40;;;;;;;;;;5055477;28;20251;-61
2022/01/04 07:35:58;;;;;;;0.40;0.40;;;;;;;;;;5055554;28;20210;-61
2022/01/04 07:38:24;;;;;;;0.40;0.40;;;;;;;;;;5055304;28;20456;-61
2022/01/04 07:40:50;;;;;;;0.30;0.30;;;;;;;;;;5055238;28;20430;-60
2022/01/04 07:43:16;;;;;;;0.40;0.40;;;;;;;;;;5047732;28;20450;-61
2022/01/04 07:45:42;;;;;;;0.40;0.40;;;;;;;;;;5035274;28;20419;-61
2022/01/04 07:48:10;;;;;;;0.40;0.40;;;;;;;;;;5034958;28;20786;-62
2022/01/04 07:50:37;;;;;;;0.40;0.40;;;;;;;;;;5035564;28;20204;-62
2022/01/04 07:53:03;;;;;;;0.40;0.40;;;;;;;;;;5035078;28;20652;-62
2022/01/04 07:55:29;;;;;;;0.40;0.40;;;;;;;;;;5034880;28;20197;-62
2022/01/04 07:57:55;;;;;;;0.40;0.40;;;;;;;;;;5035295;28;20977;-62
2022/01/04 08:00:20;;;;;;;0.40;0.40;;;;;;;;;;5035247;28;20427;-61
2022/01/04 08:02:46;;;;;;;0.40;0.40;;;;;;;;;;5034678;28;20428;-62
2022/01/04 08:05:13;;;;;;;0.50;0.50;;;;;;;;;;5044522;28;20429;-61
2022/01/04 08:07:39;;;;;;;0.40;0.40;;;;;;;;;;5037895;28;20787;-62
2022/01/04 08:10:05;;;;;;;0.40;0.40;;;;;;;;;;5034119;28;20623;-61
2022/01/04 08:12:31;;;;;;;0.40;0.40;;;;;;;;;;5033215;28;20557;-62
2022/01/04 08:14:57;;;;;;;0.40;0.40;;;;;;;;;;5034866;28;20177;-61
2022/01/04 08:17:23;;;;;;;0.50;0.50;;;;;;;;;;5032834;28;20459;-60
2022/01/04 08:19:53;;;;;;;0.40;0.40;;;;;;;;;;5033719;28;20459;-62
2022/01/04 08:22:18;;;;;;;0.40;0.40;;;;;;;;;;5034649;28;20507;-62
2022/01/04 08:24:45;;;;;;;0.50;0.50;;;;;;;;;;5033106;28;20231;-61
2022/01/04 08:27:11;;;;;;;0.40;0.40;;;;;;;;;;5034305;28;20404;-62
2022/01/04 08:29:37;;;;;;;0.40;0.40;;;;;;;;;;5034045;28;20185;-61
2022/01/04 08:32:03;;;;;;;0.40;0.40;;;;;;;;;;5031768;28;20211;-61
2022/01/04 08:34:29;;;;;;;0.40;0.40;;;;;;;;;;5015604;28;20530;-58
2022/01/04 08:36:55;;;;;;;0.40;0.40;;;;;;;;;;5035260;28;20184;-62
2022/01/04 08:39:26;;;;;;;0.40;0.40;;;;;;;;;;5033471;28;20250;-60
2022/01/04 08:41:54;;;;;;;0.50;0.50;;;;;;;;;;5034233;28;20552;-62
2022/01/04 08:44:21;;;;;;;0.40;0.40;;;;;;;;;;5033929;28;20256;-62
2022/01/04 08:46:47;;;;;;;0.40;0.40;;;;;;;;;;5034626;28;20181;-62
2022/01/04 08:49:13;;;;;;;0.50;0.50;;;;;;;;;;5033022;28;20207;-61
2022/01/04 08:51:39;;;;;;;0.50;0.50;;;;;;;;;;5015796;28;20518;-59
2022/01/04 08:54:05;;;;;;;0.40;0.40;;;;;;;;;;5034079;28;20181;-61
2022/01/04 08:56:31;;;;;;;0.40;0.40;;;;;;;;;;5030440;28;20185;-61
2022/01/04 08:58:58;;;;;;;0.50;0.50;;;;;;;;;;5031320;28;20252;-61
2022/01/04 09:01:23;;;;;;;0.40;0.40;;;;;;;;;;5020074;28;20174;-61
2022/01/04 09:03:49;;;;;;;0.40;0.40;;;;;;;;;;5011577;28;20170;-61
2022/01/04 09:06:15;;;;;;;0.40;0.40;;;;;;;;;;5017072;28;20404;-61
2022/01/04 09:08:42;;;;;;;0.40;0.40;;;;;;;;;;5033806;28;20461;-61
2022/01/04 09:11:08;;;;;;;0.40;0.40;;;;;;;;;;5016817;28;20259;-61
2022/01/04 09:13:38;;;;;;;0.40;0.40;;;;;;;;;;5029719;28;20331;-61
2022/01/04 09:18:43;;;;;;;0.50;0.50;;;;;;;;;;5033702;28;20213;-62
2022/01/04 09:21:14;;;;;;;0.50;0.50;;;;;;;;;;5033561;28;20188;-61
2022/01/04 09:23:40;;;;;;;0.50;0.50;;;;;;;;;;5029951;28;20177;-62
2022/01/04 09:26:06;;;;;;;0.40;0.40;;;;;;;;;;5033078;28;20594;-61
2022/01/04 09:28:32;;;;;;;0.50;0.50;;;;;;;;;;5014633;28;20722;-62
2022/01/04 09:30:58;;;;;;;0.50;0.50;;;;;;;;;;5033614;28;20243;-62
2022/01/04 09:33:24;;;;;;;0.40;0.40;;;;;;;;;;5033597;28;20415;-61
2022/01/04 09:35:50;;;;;;;0.40;0.40;;;;;;;;;;5033685;28;20411;-61
2022/01/04 09:38:17;;;;;;;0.40;0.40;;;;;;;;;;5033785;28;20990;-60
2022/01/04 09:40:43;;;;;;;0.40;0.40;;;;;;;;;;5033657;28;20196;-61
2022/01/04 09:43:10;;;;;;;0.40;0.40;;;;;;;;;;5032621;28;20185;-62
2022/01/04 09:45:36;;;;;;;0.40;0.40;;;;;;;;;;5032873;28;20247;-61
2022/01/04 09:48:02;;;;;;;0.40;0.40;;;;;;;;;;5033237;28;20234;-60
2022/01/04 09:50:28;;;;;;;0.40;0.40;;;;;;;;;;5033255;28;20251;-61
2022/01/04 09:52:56;;;;;;;0.40;0.40;;;;;;;;;;5033076;28;20231;-61
2022/01/04 09:55:22;;;;;;;0.50;0.50;;;;;;;;;;5032114;28;20616;-61
2022/01/04 09:57:48;;;;;;;0.40;0.40;;;;;;;;;;5033143;28;20275;-60
2022/01/04 10:00:16;;;;;;;0.40;0.40;;;;;;;;;;5033081;28;20282;-61
2022/01/04 10:02:43;;;;;;;0.40;0.40;;;;;;;;;;5032843;28;20587;-61
2022/01/04 10:05:12;;;;;;;0.40;0.40;;;;;;;;;;5032847;28;20678;-61
2022/01/04 10:07:38;;;;;;;0.40;0.40;;;;;;;;;;5032835;28;20533;-61
2022/01/04 10:10:05;;;;;;;0.40;0.40;;;;;;;;;;5032926;28;20692;-61
2022/01/04 10:12:47;;;;;;;0.40;0.40;;;;;;;;;;5032497;28;20184;-61
2022/01/04 10:15:13;;;;;;;0.32;0.32;;;;;;;;;;5033004;28;20173;-61
2022/01/04 10:17:39;;;;;;;0.40;0.40;;;;;;;;;;5033606;28;20698;-60
2022/01/04 10:20:07;;;;;;;0.40;0.40;;;;;;;;;;5033826;28;20922;-61
2022/01/04 10:22:35;;;;;;;0.40;0.40;;;;;;;;;;5032799;28;20411;-61
2022/01/04 10:25:01;;;;;;;0.40;0.40;;;;;;;;;;5032927;28;20177;-61
2022/01/04 10:27:28;;;;;;;0.40;0.40;;;;;;;;;;5032813;28;20188;-62
2022/01/04 10:30:13;;;;;;;0.40;0.40;;;;;;;;;;5031628;28;20494;-62
2022/01/04 10:32:43;;;;;;;0.40;0.40;;;;;;;;;;5032132;28;20181;-61
2022/01/04 10:35:09;;;;;;;0.40;0.40;;;;;;;;;;5032499;28;20537;-62
2022/01/04 10:37:38;;;;;;;0.40;0.40;;;;;;;;;;5031433;28;20267;-61
2022/01/04 10:40:05;;;;;;;0.40;0.40;;;;;;;;;;5030360;28;20869;-61
2022/01/04 10:42:31;;;;;;;0.50;0.50;;;;;;;;;;5031971;28;20165;-61
2022/01/04 10:44:57;;;;;;;0.40;0.40;;;;;;;;;;5031994;28;20179;-62
2022/01/04 10:47:28;;;;;;;0.40;0.40;;;;;;;;;;5031922;28;20491;-62
2022/01/04 10:49:54;;;;;;;0.40;0.40;;;;;;;;;;5032301;28;20438;-62
2022/01/04 10:52:30;;;;;;;0.40;0.40;;;;;;;;;;5031994;28;20765;-61
2022/01/04 10:55:15;;;;;;;0.40;0.40;;;;;;;;;;5030715;28;20778;-61
2022/01/04 10:57:41;;;;;;;0.40;0.40;;;;;;;;;;5031758;28;20559;-61
2022/01/04 11:00:17;;;;;;;0.40;0.40;;;;;;;;;;5031592;28;20189;-62
2022/01/04 11:02:43;;;;;;;0.40;0.40;;;;;;;;;;5031473;28;20461;-63
2022/01/04 11:05:17;;;;;;;0.50;0.50;;;;;;;;;;5031686;28;20169;-62
2022/01/04 11:07:58;;;;;;;0.40;0.40;;;;;;;;;;5031775;28;20898;-63
2022/01/04 11:10:24;;;;;;;0.40;0.40;;;;;;;;;;5013707;28;20207;-60
2022/01/04 11:12:51;;;;;;;0.40;0.40;;;;;;;;;;5031746;28;20205;-62
2022/01/04 11:15:17;;;;;;;0.40;0.40;;;;;;;;;;5031617;28;20651;-62
2022/01/04 11:17:44;;;;;;;0.43;0.43;;;;;;;;;;5031633;28;20283;-62
2022/01/04 11:20:10;;;;;;;0.50;0.50;;;;;;;;;;5031651;28;20291;-62
2022/01/04 11:22:40;;;;;;;0.40;0.40;;;;;;;;;;5031269;28;20169;-62
2022/01/04 11:25:06;;;;;;;0.40;0.40;;;;;;;;;;5031545;28;20173;-62
2022/01/04 11:27:35;;;;;;;0.40;0.40;;;;;;;;;;5030889;28;20173;-62
2022/01/04 11:30:03;;;;;;;0.40;0.40;;;;;;;;;;5023924;28;20231;-62
2022/01/04 11:32:31;;;;;;;0.40;0.40;;;;;;;;;;5022935;28;20568;-61
2022/01/04 11:34:57;;;;;;;0.40;0.40;;;;;;;;;;5030886;28;20191;-62
2022/01/04 11:37:25;;;;;;;0.40;0.40;;;;;;;;;;5028976;28;20410;-62
2022/01/04 11:39:52;;;;;;;0.40;0.40;;;;;;;;;;5030045;28;20451;-62
2022/01/04 11:42:34;;;;;;;0.40;0.40;;;;;;;;;;5028639;28;20192;-62
2022/01/04 11:45:01;;;;;;;0.40;0.40;;;;;;;;;;5031747;28;20181;-62
2022/01/04 11:47:28;;;;;;;0.40;0.40;;;;;;;;;;5029552;28;20193;-61
2022/01/04 11:50:05;;;;;;;0.40;0.40;;;;;;;;;;5031057;28;20300;-62
2022/01/04 11:52:39;;;;;;;0.40;0.40;;;;;;;;;;5011243;28;20255;-61
2022/01/04 11:55:36;;;;;;;0.40;0.40;;;;;;;;;;5029387;28;20185;-62
2022/01/04 11:58:14;;;;;;;0.50;0.50;;;;;;;;;;5022854;28;20209;-60
2022/01/04 12:00:43;;;;;;;0.40;0.40;;;;;;;;;;5012730;28;20819;-61
2022/01/04 12:03:20;;;;;;;0.40;0.40;;;;;;;;;;5031699;28;20183;-61
2022/01/04 12:05:55;;;;;;;0.40;0.40;;;;;;;;;;5029659;28;20184;-62
2022/01/04 12:08:25;;;;;;;0.50;0.50;;;;;;;;;;5035354;28;20238;-62
2022/01/04 12:10:52;;;;;;;0.40;0.40;;;;;;;;;;5034471;28;20214;-62
2022/01/04 12:13:18;;;;;;;0.40;0.40;;;;;;;;;;5034118;28;20173;-58
2022/01/04 12:15:45;;;;;;;0.40;0.40;;;;;;;;;;5033804;28;20191;-61
2022/01/04 12:18:23;;;;;;;0.40;0.40;;;;;;;;;;5034590;28;20200;-60
2022/01/04 12:20:50;;;;;;;0.40;0.40;;;;;;;;;;5031694;28;20291;-60
2022/01/04 12:23:33;;;;;;;0.40;0.40;;;;;;;;;;5033743;28;20184;-62
2022/01/04 12:28:35;;;;;;;0.40;0.40;;;;;;;;;;5031881;28;20217;-62
2022/01/04 12:31:19;;;;;;;0.40;0.40;;;;;;;;;;5034750;28;20259;-60
2022/01/04 12:34:02;;;;;;;0.40;0.40;;;;;;;;;;5033575;28;20630;-62
2022/01/04 12:36:36;;;;;;;0.40;0.40;;;;;;;;;;5034370;28;20188;-62
2022/01/04 12:39:04;;;;;;;0.40;0.40;;;;;;;;;;5034659;28;20294;-62
2022/01/04 12:41:30;;;;;;;0.50;0.50;;;;;;;;;;5034520;28;20180;-62
2022/01/04 12:43:57;;;;;;;0.40;0.40;;;;;;;;;;5034286;28;20177;-60
2022/01/04 12:46:30;;;;;;;0.40;0.40;;;;;;;;;;5034214;28;20585;-62
2022/01/04 12:48:59;;;;;;;0.40;0.40;;;;;;;;;;5034203;28;20200;-62
2022/01/04 12:51:28;;;;;;;0.50;0.50;;;;;;;;;;5034601;28;20189;-61
2022/01/04 12:53:55;;;;;;;0.40;0.40;;;;;;;;;;5034160;28;20236;-62
2022/01/04 12:56:21;;;;;;;0.40;0.40;;;;;;;;;;5034210;28;20543;-61
2022/01/04 12:58:47;;;;;;;0.40;0.40;;;;;;;;;;5034046;28;20205;-62
2022/01/04 13:01:13;;;;;;;0.50;0.50;;;;;;;;;;5032432;28;20552;-61
2022/01/04 13:03:39;;;;;;;0.40;0.40;;;;;;;;;;5033537;28;20487;-60
2022/01/04 13:06:05;;;;;;;0.40;0.40;;;;;;;;;;5033313;28;20411;-62
2022/01/04 13:08:32;;;;;;;0.40;0.40;;;;;;;;;;5034127;28;20172;-62
2022/01/04 13:11:02;;;;;;;0.40;0.40;;;;;;;;;;5033865;28;20220;-62
2022/01/04 13:13:30;;;;;;;0.50;0.50;;;;;;;;;;5033831;28;20207;-62
2022/01/04 13:15:56;;;;;;;0.40;0.40;;;;;;;;;;5033496;28;20177;-62
2022/01/04 13:18:28;;;;;;;0.40;0.40;;;;;;;;;;5032451;28;20240;-62
2022/01/04 13:20:54;;;;;;;0.40;0.40;;;;;;;;;;5033516;28;20213;-62
2022/01/04 13:23:24;;;;;;;0.40;0.40;;;;;;;;;;5033580;28;20161;-62
2022/01/04 13:25:59;;;;;;;0.40;0.40;;;;;;;;;;5033526;28;20391;-62
2022/01/04 13:28:25;;;;;;;0.30;0.30;;;;;;;;;;5033134;28;20176;-62
2022/01/04 13:30:51;;;;;;;0.40;0.40;;;;;;;;;;5033102;28;20219;-62
2022/01/04 13:33:22;;;;;;;0.32;0.32;;;;;;;;;;5033291;28;20915;-62
2022/01/04 13:35:48;;;;;;;0.40;0.40;;;;;;;;;;5033427;28;20180;-62
2022/01/04 13:38:20;;;;;;;0.40;0.40;;;;;;;;;;5033483;28;20189;-61
2022/01/04 13:40:47;;;;;;;0.40;0.40;;;;;;;;;;5032821;28;20189;-62
2022/01/04 13:43:14;;;;;;;0.40;0.40;;;;;;;;;;5032803;28;20632;-62
2022/01/04 13:45:40;;;;;;;0.40;0.40;;;;;;;;;;5033492;28;20230;-62
2022/01/04 13:48:06;;;;;;;0.40;0.40;;;;;;;;;;5033099;28;20181;-62
2022/01/04 13:50:41;;;;;;;0.40;0.40;;;;;;;;;;5032556;28;20445;-62
2022/01/04 13:53:15;;;;;;;0.40;0.40;;;;;;;;;;5032981;28;20454;-62
2022/01/04 13:55:44;;;;;;;0.40;0.40;;;;;;;;;;5032688;28;20191;-61
2022/01/04 13:58:29;;;;;;;0.40;0.40;;;;;;;;;;5033006;28;20258;-62
2022/01/04 14:00:54;;;;;;;0.40;0.40;;;;;;;;;;5031822;28;20730;-62
2022/01/04 14:03:28;;;;;;;0.40;0.40;;;;;;;;;;5032724;28;20180;-62
2022/01/04 14:05:54;;;;;;;0.40;0.40;;;;;;;;;;5032948;28;20840;-62
2022/01/04 14:08:20;;;;;;;0.40;0.40;;;;;;;;;;5032483;28;20267;-62
2022/01/04 14:10:53;;;;;;;0.40;0.40;;;;;;;;;;5032467;28;20431;-62
2022/01/04 14:13:29;;;;;;;0.40;0.40;;;;;;;;;;5032481;28;20407;-62
2022/01/04 14:16:08;;;;;;;0.40;0.40;;;;;;;;;;5031862;28;20695;-62
2022/01/04 14:18:33;;;;;;;0.40;0.40;;;;;;;;;;5032239;28;20205;-62
2022/01/04 14:20:59;;;;;;;0.50;0.50;;;;;;;;;;5032347;28;20287;-62
2022/01/04 14:23:36;;;;;;;0.50;0.50;;;;;;;;;;5032003;28;20402;-62
2022/01/04 14:26:06;;;;;;;0.40;0.40;;;;;;;;;;5014974;28;20403;-62
2022/01/04 14:28:32;;;;;;;0.40;0.40;;;;;;;;;;5030922;28;20604;-62
2022/01/04 14:30:59;;;;;;;0.40;0.40;;;;;;;;;;5031936;28;20203;-62
2022/01/04 14:33:25;;;;;;;0.40;0.40;;;;;;;;;;5032344;28;20180;-62
2022/01/04 14:35:51;;;;;;;0.50;0.50;;;;;;;;;;5032193;28;20177;-62
2022/01/04 14:38:17;;;;;;;0.50;0.50;;;;;;;;;;5032694;28;20915;-62
2022/01/04 14:40:43;;;;;;;0.50;0.50;;;;;;;;;;5031970;28;20196;-62
2022/01/04 14:43:09;;;;;;;0.50;0.50;;;;;;;;;;5031920;28;20204;-62
2022/01/04 14:45:36;;;;;;;0.60;0.60;;;;;;;;;;5031955;28;20181;-62
2022/01/04 14:48:02;;;;;;;0.40;0.40;;;;;;;;;;5032311;28;20175;-62
2022/01/04 14:50:28;;;;;;;0.50;0.50;;;;;;;;;;5031980;28;20192;-62
2022/01/04 14:52:55;;;;;;;0.50;0.50;;;;;;;;;;5032370;28;20501;-62